sensor_id;sensor_type;location;lat;lon;timestamp;temperature;humidity
58554;DHT22;48119;53.218;6.576;2023-04-06T00:02:00;8.70;91.60
58554;DHT22;48119;53.218;6.576;2023-04-06T00:04:26;8.70;91.80
58554;DHT22;48119;53.218;6.576;2023-04-06T00:06:52;8.70;91.90
58554;DHT22;48119;53.218;6.576;2023-04-06T00:09:18;8.60;92.00
58554;DHT22;48119;53.218;6.576;2023-04-06T00:11:44;8.70;92.30
58554;DHT22;48119;53.218;6.576;2023-04-06T00:14:09;8.60;92.40
58554;DHT22;48119;53.218;6.576;2023-04-06T00:16:35;8.60;92.60
58554;DHT22;48119;53.218;6.576;2023-04-06T00:19:01;8.60;92.80
58554;DHT22;48119;53.218;6.576;2023-04-06T00:21:27;8.60;92.90
58554;DHT22;48119;53.218;6.576;2023-04-06T00:23:53;8.60;93.00
58554;DHT22;48119;53.218;6.576;2023-04-06T00:26:18;8.50;93.00
58554;DHT22;48119;53.218;6.576;2023-04-06T00:28:44;8.50;93.00
58554;DHT22;48119;53.218;6.576;2023-04-06T00:31:10;8.50;93.10
58554;DHT22;48119;53.218;6.576;2023-04-06T00:33:36;8.50;93.10
58554;DHT22;48119;53.218;6.576;2023-04-06T00:36:02;8.50;93.10
58554;DHT22;48119;53.218;6.576;2023-04-06T00:38:28;8.50;93.00
58554;DHT22;48119;53.218;6.576;2023-04-06T00:40:54;8.50;92.90
58554;DHT22;48119;53.218;6.576;2023-04-06T00:43:20;8.50;92.90
58554;DHT22;48119;53.218;6.576;2023-04-06T00:45:46;8.50;92.80
58554;DHT22;48119;53.218;6.576;2023-04-06T00:48:12;8.50;92.70
58554;DHT22;48119;53.218;6.576;2023-04-06T00:50:38;8.50;92.70
58554;DHT22;48119;53.218;6.576;2023-04-06T00:53:04;8.50;92.70
58554;DHT22;48119;53.218;6.576;2023-04-06T00:55:30;8.50;92.70
58554;DHT22;48119;53.218;6.576;2023-04-06T00:57:58;8.40;92.70
58554;DHT22;48119;53.218;6.576;2023-04-06T01:00:25;8.50;92.70
58554;DHT22;48119;53.218;6.576;2023-04-06T01:02:51;8.50;92.60
58554;DHT22;48119;53.218;6.576;2023-04-06T01:05:17;8.40;92.70
58554;DHT22;48119;53.218;6.576;2023-04-06T01:07:43;8.40;92.70
58554;DHT22;48119;53.218;6.576;2023-04-06T01:10:09;8.40;92.60
58554;DHT22;48119;53.218;6.576;2023-04-06T01:12:35;8.40;92.70
58554;DHT22;48119;53.218;6.576;2023-04-06T01:15:03;8.40;92.70
58554;DHT22;48119;53.218;6.576;2023-04-06T01:17:29;8.30;92.70
58554;DHT22;48119;53.218;6.576;2023-04-06T01:19:55;8.30;92.90
58554;DHT22;48119;53.218;6.576;2023-04-06T01:22:21;8.30;92.80
58554;DHT22;48119;53.218;6.576;2023-04-06T01:24:47;8.30;92.90
58554;DHT22;48119;53.218;6.576;2023-04-06T01:27:13;8.30;92.90
58554;DHT22;48119;53.218;6.576;2023-04-06T01:29:42;8.30;93.00
58554;DHT22;48119;53.218;6.576;2023-04-06T01:32:10;8.30;93.00
58554;DHT22;48119;53.218;6.576;2023-04-06T01:34:36;8.30;93.00
58554;DHT22;48119;53.218;6.576;2023-04-06T01:37:05;8.30;93.00
58554;DHT22;48119;53.218;6.576;2023-04-06T01:39:31;8.20;93.00
58554;DHT22;48119;53.218;6.576;2023-04-06T01:41:56;8.20;93.00
58554;DHT22;48119;53.218;6.576;2023-04-06T01:44:22;8.20;93.00
58554;DHT22;48119;53.218;6.576;2023-04-06T01:46:48;8.20;92.90
58554;DHT22;48119;53.218;6.576;2023-04-06T01:49:14;8.20;92.90
58554;DHT22;48119;53.218;6.576;2023-04-06T01:51:40;8.10;92.80
58554;DHT22;48119;53.218;6.576;2023-04-06T01:54:05;8.20;92.80
58554;DHT22;48119;53.218;6.576;2023-04-06T01:56:31;8.10;92.70
58554;DHT22;48119;53.218;6.576;2023-04-06T01:58:57;8.10;92.70
58554;DHT22;48119;53.218;6.576;2023-04-06T02:01:23;8.10;92.70
58554;DHT22;48119;53.218;6.576;2023-04-06T02:03:49;8.10;92.70
58554;DHT22;48119;53.218;6.576;2023-04-06T02:06:17;8.10;92.80
58554;DHT22;48119;53.218;6.576;2023-04-06T02:08:43;8.10;92.90
58554;DHT22;48119;53.218;6.576;2023-04-06T02:11:09;8.00;92.90
58554;DHT22;48119;53.218;6.576;2023-04-06T02:13:35;8.10;93.10
58554;DHT22;48119;53.218;6.576;2023-04-06T02:16:00;8.10;93.00
58554;DHT22;48119;53.218;6.576;2023-04-06T02:18:29;8.00;93.10
58554;DHT22;48119;53.218;6.576;2023-04-06T02:20:55;8.00;93.10
58554;DHT22;48119;53.218;6.576;2023-04-06T02:23:21;8.00;93.20
58554;DHT22;48119;53.218;6.576;2023-04-06T02:25:47;8.00;93.20
58554;DHT22;48119;53.218;6.576;2023-04-06T02:28:13;8.00;93.10
58554;DHT22;48119;53.218;6.576;2023-04-06T02:30:39;7.90;93.10
58554;DHT22;48119;53.218;6.576;2023-04-06T02:33:04;7.90;93.10
58554;DHT22;48119;53.218;6.576;2023-04-06T02:35:31;7.90;93.10
58554;DHT22;48119;53.218;6.576;2023-04-06T02:37:57;7.90;93.00
58554;DHT22;48119;53.218;6.576;2023-04-06T02:40:23;7.80;92.90
58554;DHT22;48119;53.218;6.576;2023-04-06T02:42:48;7.80;92.90
58554;DHT22;48119;53.218;6.576;2023-04-06T02:45:14;7.80;92.90
58554;DHT22;48119;53.218;6.576;2023-04-06T02:47:41;7.80;92.80
58554;DHT22;48119;53.218;6.576;2023-04-06T02:50:07;7.80;92.80
58554;DHT22;48119;53.218;6.576;2023-04-06T02:52:33;7.80;92.80
58554;DHT22;48119;53.218;6.576;2023-04-06T02:55:00;7.80;92.80
58554;DHT22;48119;53.218;6.576;2023-04-06T02:57:26;7.80;92.80
58554;DHT22;48119;53.218;6.576;2023-04-06T02:59:51;7.70;92.80
58554;DHT22;48119;53.218;6.576;2023-04-06T03:02:17;7.70;92.80
58554;DHT22;48119;53.218;6.576;2023-04-06T03:04:44;7.80;92.80
58554;DHT22;48119;53.218;6.576;2023-04-06T03:07:10;7.70;92.80
58554;DHT22;48119;53.218;6.576;2023-04-06T03:09:37;7.70;92.80
58554;DHT22;48119;53.218;6.576;2023-04-06T03:12:03;7.70;92.80
58554;DHT22;48119;53.218;6.576;2023-04-06T03:14:29;7.70;92.80
58554;DHT22;48119;53.218;6.576;2023-04-06T03:16:55;7.70;92.80
58554;DHT22;48119;53.218;6.576;2023-04-06T03:19:20;7.70;92.70
58554;DHT22;48119;53.218;6.576;2023-04-06T03:21:49;7.70;92.70
58554;DHT22;48119;53.218;6.576;2023-04-06T03:24:15;7.70;92.60
58554;DHT22;48119;53.218;6.576;2023-04-06T03:26:41;7.70;92.50
58554;DHT22;48119;53.218;6.576;2023-04-06T03:29:06;7.70;92.50
58554;DHT22;48119;53.218;6.576;2023-04-06T03:31:32;7.60;92.40
58554;DHT22;48119;53.218;6.576;2023-04-06T03:33:58;7.60;92.30
58554;DHT22;48119;53.218;6.576;2023-04-06T03:36:24;7.70;92.20
58554;DHT22;48119;53.218;6.576;2023-04-06T03:38:51;7.60;92.10
58554;DHT22;48119;53.218;6.576;2023-04-06T03:41:19;7.60;92.00
58554;DHT22;48119;53.218;6.576;2023-04-06T03:43:45;7.60;91.90
58554;DHT22;48119;53.218;6.576;2023-04-06T03:46:11;7.60;91.90
58554;DHT22;48119;53.218;6.576;2023-04-06T03:48:37;7.60;92.00
58554;DHT22;48119;53.218;6.576;2023-04-06T03:51:03;7.60;92.00
58554;DHT22;48119;53.218;6.576;2023-04-06T03:53:28;7.50;92.10
58554;DHT22;48119;53.218;6.576;2023-04-06T03:55:54;7.40;92.20
58554;DHT22;48119;53.218;6.576;2023-04-06T03:58:20;7.40;92.30
58554;DHT22;48119;53.218;6.576;2023-04-06T04:00:46;7.40;92.30
58554;DHT22;48119;53.218;6.576;2023-04-06T04:03:12;7.40;92.30
58554;DHT22;48119;53.218;6.576;2023-04-06T04:05:37;7.40;92.40
58554;DHT22;48119;53.218;6.576;2023-04-06T04:08:03;7.40;92.40
58554;DHT22;48119;53.218;6.576;2023-04-06T04:10:31;7.40;92.40
58554;DHT22;48119;53.218;6.576;2023-04-06T04:12:57;7.30;92.40
58554;DHT22;48119;53.218;6.576;2023-04-06T04:15:23;7.30;92.50
58554;DHT22;48119;53.218;6.576;2023-04-06T04:17:49;7.30;92.60
58554;DHT22;48119;53.218;6.576;2023-04-06T04:20:16;7.30;92.60
58554;DHT22;48119;53.218;6.576;2023-04-06T04:22:42;7.30;92.50
58554;DHT22;48119;53.218;6.576;2023-04-06T04:25:08;7.30;92.50
58554;DHT22;48119;53.218;6.576;2023-04-06T04:27:34;7.30;92.40
58554;DHT22;48119;53.218;6.576;2023-04-06T04:30:00;7.30;92.40
58554;DHT22;48119;53.218;6.576;2023-04-06T04:32:26;7.30;92.40
58554;DHT22;48119;53.218;6.576;2023-04-06T04:34:53;7.20;92.50
58554;DHT22;48119;53.218;6.576;2023-04-06T04:37:19;7.30;92.60
58554;DHT22;48119;53.218;6.576;2023-04-06T04:39:45;7.20;92.60
58554;DHT22;48119;53.218;6.576;2023-04-06T04:42:11;7.30;92.70
58554;DHT22;48119;53.218;6.576;2023-04-06T04:44:37;7.20;92.60
58554;DHT22;48119;53.218;6.576;2023-04-06T04:47:02;7.20;92.60
58554;DHT22;48119;53.218;6.576;2023-04-06T04:49:28;7.20;92.50
58554;DHT22;48119;53.218;6.576;2023-04-06T04:51:54;7.20;92.40
58554;DHT22;48119;53.218;6.576;2023-04-06T04:54:20;7.20;92.40
58554;DHT22;48119;53.218;6.576;2023-04-06T04:56:46;7.20;92.40
58554;DHT22;48119;53.218;6.576;2023-04-06T04:59:11;7.20;92.30
58554;DHT22;48119;53.218;6.576;2023-04-06T05:01:37;7.10;92.20
58554;DHT22;48119;53.218;6.576;2023-04-06T05:04:03;7.10;92.20
58554;DHT22;48119;53.218;6.576;2023-04-06T05:06:29;7.10;92.10
58554;DHT22;48119;53.218;6.576;2023-04-06T05:08:55;7.10;92.00
58554;DHT22;48119;53.218;6.576;2023-04-06T05:11:21;7.00;92.00
58554;DHT22;48119;53.218;6.576;2023-04-06T05:13:47;7.00;91.90
58554;DHT22;48119;53.218;6.576;2023-04-06T05:16:12;7.00;91.80
58554;DHT22;48119;53.218;6.576;2023-04-06T05:18:38;7.00;91.80
58554;DHT22;48119;53.218;6.576;2023-04-06T05:21:04;7.10;91.80
58554;DHT22;48119;53.218;6.576;2023-04-06T05:23:30;7.00;91.90
58554;DHT22;48119;53.218;6.576;2023-04-06T05:25:56;7.00;91.90
58554;DHT22;48119;53.218;6.576;2023-04-06T05:28:22;7.00;92.00
58554;DHT22;48119;53.218;6.576;2023-04-06T05:30:48;7.00;92.10
58554;DHT22;48119;53.218;6.576;2023-04-06T05:33:16;6.90;92.20
58554;DHT22;48119;53.218;6.576;2023-04-06T05:35:42;7.00;92.30
58554;DHT22;48119;53.218;6.576;2023-04-06T05:38:08;7.00;92.30
58554;DHT22;48119;53.218;6.576;2023-04-06T05:40:36;7.00;92.30
58554;DHT22;48119;53.218;6.576;2023-04-06T05:43:03;7.00;92.30
58554;DHT22;48119;53.218;6.576;2023-04-06T05:45:29;7.00;92.20
58554;DHT22;48119;53.218;6.576;2023-04-06T05:47:55;6.90;92.10
58554;DHT22;48119;53.218;6.576;2023-04-06T05:50:21;6.90;92.00
58554;DHT22;48119;53.218;6.576;2023-04-06T05:52:47;6.90;92.00
58554;DHT22;48119;53.218;6.576;2023-04-06T05:55:13;6.90;92.00
58554;DHT22;48119;53.218;6.576;2023-04-06T05:57:39;6.90;92.00
58554;DHT22;48119;53.218;6.576;2023-04-06T06:00:06;6.90;91.90
58554;DHT22;48119;53.218;6.576;2023-04-06T06:02:34;6.80;91.90
58554;DHT22;48119;53.218;6.576;2023-04-06T06:05:00;6.80;91.90
58554;DHT22;48119;53.218;6.576;2023-04-06T06:07:26;6.90;92.00
58554;DHT22;48119;53.218;6.576;2023-04-06T06:09:52;6.90;91.90
58554;DHT22;48119;53.218;6.576;2023-04-06T06:12:17;6.90;91.70
58554;DHT22;48119;53.218;6.576;2023-04-06T06:14:43;6.90;91.70
58554;DHT22;48119;53.218;6.576;2023-04-06T06:17:09;7.00;91.70
58554;DHT22;48119;53.218;6.576;2023-04-06T06:19:35;7.00;91.80
58554;DHT22;48119;53.218;6.576;2023-04-06T06:22:00;7.00;91.80
58554;DHT22;48119;53.218;6.576;2023-04-06T06:24:28;7.00;91.90
58554;DHT22;48119;53.218;6.576;2023-04-06T06:26:54;7.00;91.90
58554;DHT22;48119;53.218;6.576;2023-04-06T06:29:19;7.00;91.90
58554;DHT22;48119;53.218;6.576;2023-04-06T06:31:45;7.00;91.80
58554;DHT22;48119;53.218;6.576;2023-04-06T06:34:11;7.10;91.80
58554;DHT22;48119;53.218;6.576;2023-04-06T06:36:38;7.10;91.80
58554;DHT22;48119;53.218;6.576;2023-04-06T06:39:04;7.10;91.80
58554;DHT22;48119;53.218;6.576;2023-04-06T06:41:30;7.20;91.80
58554;DHT22;48119;53.218;6.576;2023-04-06T06:43:55;7.20;91.80
58554;DHT22;48119;53.218;6.576;2023-04-06T06:46:21;7.20;91.80
58554;DHT22;48119;53.218;6.576;2023-04-06T06:48:47;7.20;91.80
58554;DHT22;48119;53.218;6.576;2023-04-06T06:51:13;7.20;91.70
58554;DHT22;48119;53.218;6.576;2023-04-06T06:53:38;7.30;91.70
58554;DHT22;48119;53.218;6.576;2023-04-06T06:56:05;7.20;91.60
58554;DHT22;48119;53.218;6.576;2023-04-06T06:58:30;7.20;91.60
58554;DHT22;48119;53.218;6.576;2023-04-06T07:00:57;7.20;91.60
58554;DHT22;48119;53.218;6.576;2023-04-06T07:03:23;7.30;91.60
58554;DHT22;48119;53.218;6.576;2023-04-06T07:05:49;7.30;91.70
58554;DHT22;48119;53.218;6.576;2023-04-06T07:08:19;7.30;91.70
58554;DHT22;48119;53.218;6.576;2023-04-06T07:10:45;7.30;91.70
58554;DHT22;48119;53.218;6.576;2023-04-06T07:13:11;7.40;91.70
58554;DHT22;48119;53.218;6.576;2023-04-06T07:15:37;7.40;91.70
58554;DHT22;48119;53.218;6.576;2023-04-06T07:18:03;7.50;91.80
58554;DHT22;48119;53.218;6.576;2023-04-06T07:20:29;7.50;91.70
58554;DHT22;48119;53.218;6.576;2023-04-06T07:22:55;7.50;91.60
58554;DHT22;48119;53.218;6.576;2023-04-06T07:25:20;7.60;91.60
58554;DHT22;48119;53.218;6.576;2023-04-06T07:27:46;7.60;91.50
58554;DHT22;48119;53.218;6.576;2023-04-06T07:30:13;7.60;91.40
58554;DHT22;48119;53.218;6.576;2023-04-06T07:32:39;7.70;91.40
58554;DHT22;48119;53.218;6.576;2023-04-06T07:35:05;7.70;91.40
58554;DHT22;48119;53.218;6.576;2023-04-06T07:37:31;7.70;91.30
58554;DHT22;48119;53.218;6.576;2023-04-06T07:39:57;7.70;91.30
58554;DHT22;48119;53.218;6.576;2023-04-06T07:42:23;7.80;91.30
58554;DHT22;48119;53.218;6.576;2023-04-06T07:44:48;7.80;91.20
58554;DHT22;48119;53.218;6.576;2023-04-06T07:47:14;7.90;91.20
58554;DHT22;48119;53.218;6.576;2023-04-06T07:49:40;7.90;91.30
58554;DHT22;48119;53.218;6.576;2023-04-06T07:52:06;7.90;91.40
58554;DHT22;48119;53.218;6.576;2023-04-06T07:54:32;8.00;91.40
58554;DHT22;48119;53.218;6.576;2023-04-06T07:56:58;8.10;91.30
58554;DHT22;48119;53.218;6.576;2023-04-06T07:59:24;8.10;91.30
58554;DHT22;48119;53.218;6.576;2023-04-06T08:01:49;8.10;91.40
58554;DHT22;48119;53.218;6.576;2023-04-06T08:04:15;8.20;91.40
58554;DHT22;48119;53.218;6.576;2023-04-06T08:06:41;8.30;91.40
58554;DHT22;48119;53.218;6.576;2023-04-06T08:09:07;8.30;91.40
58554;DHT22;48119;53.218;6.576;2023-04-06T08:11:32;8.40;91.40
58554;DHT22;48119;53.218;6.576;2023-04-06T08:13:58;8.40;91.30
58554;DHT22;48119;53.218;6.576;2023-04-06T08:16:24;8.50;91.20
58554;DHT22;48119;53.218;6.576;2023-04-06T08:18:50;8.60;91.10
58554;DHT22;48119;53.218;6.576;2023-04-06T08:21:16;8.60;91.00
58554;DHT22;48119;53.218;6.576;2023-04-06T08:23:41;8.60;91.00
58554;DHT22;48119;53.218;6.576;2023-04-06T08:26:07;8.60;91.00
58554;DHT22;48119;53.218;6.576;2023-04-06T08:28:33;8.70;90.90
58554;DHT22;48119;53.218;6.576;2023-04-06T08:31:05;8.70;90.80
58554;DHT22;48119;53.218;6.576;2023-04-06T08:33:32;8.80;90.70
58554;DHT22;48119;53.218;6.576;2023-04-06T08:36:07;8.90;90.50
58554;DHT22;48119;53.218;6.576;2023-04-06T08:38:33;8.90;90.20
58554;DHT22;48119;53.218;6.576;2023-04-06T08:40:59;8.90;90.10
58554;DHT22;48119;53.218;6.576;2023-04-06T08:43:27;9.00;90.10
58554;DHT22;48119;53.218;6.576;2023-04-06T08:45:53;9.10;90.10
58554;DHT22;48119;53.218;6.576;2023-04-06T08:48:19;9.10;90.00
58554;DHT22;48119;53.218;6.576;2023-04-06T08:50:46;9.10;89.70
58554;DHT22;48119;53.218;6.576;2023-04-06T08:53:12;9.20;89.70
58554;DHT22;48119;53.218;6.576;2023-04-06T08:55:38;9.20;89.70
58554;DHT22;48119;53.218;6.576;2023-04-06T08:58:06;9.30;89.60
58554;DHT22;48119;53.218;6.576;2023-04-06T09:00:38;9.30;89.20
58554;DHT22;48119;53.218;6.576;2023-04-06T09:03:05;9.40;88.90
58554;DHT22;48119;53.218;6.576;2023-04-06T09:05:31;9.40;88.70
58554;DHT22;48119;53.218;6.576;2023-04-06T09:07:57;9.50;88.40
58554;DHT22;48119;53.218;6.576;2023-04-06T09:10:23;9.50;88.20
58554;DHT22;48119;53.218;6.576;2023-04-06T09:12:50;9.50;88.10
58554;DHT22;48119;53.218;6.576;2023-04-06T09:15:21;9.60;87.90
58554;DHT22;48119;53.218;6.576;2023-04-06T09:17:49;9.70;87.60
58554;DHT22;48119;53.218;6.576;2023-04-06T09:20:25;9.70;87.60
58554;DHT22;48119;53.218;6.576;2023-04-06T09:22:53;9.80;87.00
58554;DHT22;48119;53.218;6.576;2023-04-06T09:25:21;9.80;86.50
58554;DHT22;48119;53.218;6.576;2023-04-06T09:27:59;9.80;85.60
58554;DHT22;48119;53.218;6.576;2023-04-06T09:30:26;9.80;84.90
58554;DHT22;48119;53.218;6.576;2023-04-06T09:32:54;9.80;85.10
58554;DHT22;48119;53.218;6.576;2023-04-06T09:35:21;9.90;84.90
58554;DHT22;48119;53.218;6.576;2023-04-06T09:37:50;9.90;84.40
58554;DHT22;48119;53.218;6.576;2023-04-06T09:40:18;10.00;84.10
58554;DHT22;48119;53.218;6.576;2023-04-06T09:42:48;10.00;83.50
58554;DHT22;48119;53.218;6.576;2023-04-06T09:45:17;10.10;83.40
58554;DHT22;48119;53.218;6.576;2023-04-06T09:47:44;10.10;83.40
58554;DHT22;48119;53.218;6.576;2023-04-06T09:50:12;10.10;83.10
58554;DHT22;48119;53.218;6.576;2023-04-06T09:52:42;10.10;83.00
58554;DHT22;48119;53.218;6.576;2023-04-06T09:55:12;10.20;83.00
58554;DHT22;48119;53.218;6.576;2023-04-06T09:57:57;10.10;83.00
58554;DHT22;48119;53.218;6.576;2023-04-06T10:00:25;10.20;83.00
58554;DHT22;48119;53.218;6.576;2023-04-06T10:08:12;10.20;83.60
58554;DHT22;48119;53.218;6.576;2023-04-06T10:10:38;10.30;83.60
58554;DHT22;48119;53.218;6.576;2023-04-06T10:13:05;10.30;83.70
58554;DHT22;48119;53.218;6.576;2023-04-06T10:15:31;10.30;83.70
58554;DHT22;48119;53.218;6.576;2023-04-06T10:18:06;10.40;83.70
58554;DHT22;48119;53.218;6.576;2023-04-06T10:23:48;10.40;83.90
58554;DHT22;48119;53.218;6.576;2023-04-06T10:26:16;10.50;83.50
58554;DHT22;48119;53.218;6.576;2023-04-06T10:28:44;10.50;83.30
58554;DHT22;48119;53.218;6.576;2023-04-06T10:31:11;10.50;83.40
58554;DHT22;48119;53.218;6.576;2023-04-06T10:33:37;10.60;83.50
58554;DHT22;48119;53.218;6.576;2023-04-06T10:36:13;10.60;83.30
58554;DHT22;48119;53.218;6.576;2023-04-06T10:38:40;10.70;83.00
58554;DHT22;48119;53.218;6.576;2023-04-06T10:41:10;10.70;83.00
58554;DHT22;48119;53.218;6.576;2023-04-06T10:43:37;10.70;82.40
58554;DHT22;48119;53.218;6.576;2023-04-06T10:46:05;10.80;82.30
58554;DHT22;48119;53.218;6.576;2023-04-06T10:48:39;10.80;82.30
58554;DHT22;48119;53.218;6.576;2023-04-06T10:51:13;10.90;82.00
58554;DHT22;48119;53.218;6.576;2023-04-06T10:53:46;10.90;81.70
58554;DHT22;48119;53.218;6.576;2023-04-06T10:56:17;10.90;81.50
58554;DHT22;48119;53.218;6.576;2023-04-06T10:58:53;11.00;81.80
58554;DHT22;48119;53.218;6.576;2023-04-06T11:01:23;11.00;81.90
58554;DHT22;48119;53.218;6.576;2023-04-06T11:03:52;11.00;81.30
58554;DHT22;48119;53.218;6.576;2023-04-06T11:06:22;11.00;80.70
58554;DHT22;48119;53.218;6.576;2023-04-06T11:08:49;11.10;81.20
58554;DHT22;48119;53.218;6.576;2023-04-06T11:11:20;11.10;81.30
58554;DHT22;48119;53.218;6.576;2023-04-06T11:13:49;11.10;80.80
58554;DHT22;48119;53.218;6.576;2023-04-06T11:18:51;11.20;80.90
58554;DHT22;48119;53.218;6.576;2023-04-06T11:21:18;11.20;80.70
58554;DHT22;48119;53.218;6.576;2023-04-06T11:23:44;11.20;79.20
58554;DHT22;48119;53.218;6.576;2023-04-06T11:26:11;11.30;77.80
58554;DHT22;48119;53.218;6.576;2023-04-06T11:28:39;11.30;76.90
58554;DHT22;48119;53.218;6.576;2023-04-06T11:31:05;11.30;77.30
58554;DHT22;48119;53.218;6.576;2023-04-06T11:33:36;11.40;77.60
58554;DHT22;48119;53.218;6.576;2023-04-06T11:36:03;11.40;76.90
58554;DHT22;48119;53.218;6.576;2023-04-06T11:38:29;11.40;76.90
58554;DHT22;48119;53.218;6.576;2023-04-06T11:40:56;11.50;77.00
58554;DHT22;48119;53.218;6.576;2023-04-06T11:43:30;11.50;76.90
58554;DHT22;48119;53.218;6.576;2023-04-06T11:46:03;11.50;76.90
58554;DHT22;48119;53.218;6.576;2023-04-06T11:48:29;11.60;77.20
58554;DHT22;48119;53.218;6.576;2023-04-06T11:50:57;11.60;77.20
58554;DHT22;48119;53.218;6.576;2023-04-06T11:53:23;11.70;77.60
58554;DHT22;48119;53.218;6.576;2023-04-06T11:55:49;11.70;77.70
58554;DHT22;48119;53.218;6.576;2023-04-06T11:58:15;11.80;78.50
58554;DHT22;48119;53.218;6.576;2023-04-06T12:00:40;11.80;78.90
58554;DHT22;48119;53.218;6.576;2023-04-06T12:03:13;11.80;78.40
58554;DHT22;48119;53.218;6.576;2023-04-06T12:05:39;11.90;78.30
58554;DHT22;48119;53.218;6.576;2023-04-06T12:08:05;11.90;76.40
58554;DHT22;48119;53.218;6.576;2023-04-06T12:10:31;11.90;77.00
58554;DHT22;48119;53.218;6.576;2023-04-06T12:12:57;11.90;77.30
58554;DHT22;48119;53.218;6.576;2023-04-06T12:15:22;11.90;78.30
58554;DHT22;48119;53.218;6.576;2023-04-06T12:17:48;11.90;78.30
58554;DHT22;48119;53.218;6.576;2023-04-06T12:20:15;11.90;77.20
58554;DHT22;48119;53.218;6.576;2023-04-06T12:22:41;12.00;76.00
58554;DHT22;48119;53.218;6.576;2023-04-06T12:25:07;12.00;77.00
58554;DHT22;48119;53.218;6.576;2023-04-06T12:27:33;12.00;76.60
58554;DHT22;48119;53.218;6.576;2023-04-06T12:29:58;12.00;77.20
58554;DHT22;48119;53.218;6.576;2023-04-06T12:32:24;12.00;77.20
58554;DHT22;48119;53.218;6.576;2023-04-06T12:34:53;12.00;76.60
58554;DHT22;48119;53.218;6.576;2023-04-06T12:37:19;12.00;75.60
58554;DHT22;48119;53.218;6.576;2023-04-06T12:39:46;12.00;75.90
58554;DHT22;48119;53.218;6.576;2023-04-06T12:42:12;12.10;76.40
58554;DHT22;48119;53.218;6.576;2023-04-06T12:44:39;12.10;77.90
58554;DHT22;48119;53.218;6.576;2023-04-06T12:47:05;12.10;78.40
58554;DHT22;48119;53.218;6.576;2023-04-06T12:49:32;12.10;78.10
58554;DHT22;48119;53.218;6.576;2023-04-06T12:51:58;12.10;79.10
58554;DHT22;48119;53.218;6.576;2023-04-06T12:54:24;12.10;78.60
58554;DHT22;48119;53.218;6.576;2023-04-06T12:56:54;12.10;77.20
58554;DHT22;48119;53.218;6.576;2023-04-06T12:59:22;12.10;76.70
58554;DHT22;48119;53.218;6.576;2023-04-06T13:01:47;12.10;76.10
58554;DHT22;48119;53.218;6.576;2023-04-06T13:04:13;12.20;77.00
58554;DHT22;48119;53.218;6.576;2023-04-06T13:06:39;12.10;77.60
58554;DHT22;48119;53.218;6.576;2023-04-06T13:09:05;12.20;76.60
58554;DHT22;48119;53.218;6.576;2023-04-06T13:11:31;12.20;74.50
58554;DHT22;48119;53.218;6.576;2023-04-06T13:13:57;12.20;72.80
58554;DHT22;48119;53.218;6.576;2023-04-06T13:16:22;12.20;75.00
58554;DHT22;48119;53.218;6.576;2023-04-06T13:18:48;12.30;75.70
58554;DHT22;48119;53.218;6.576;2023-04-06T13:21:16;12.20;74.30
58554;DHT22;48119;53.218;6.576;2023-04-06T13:23:43;12.20;74.10
58554;DHT22;48119;53.218;6.576;2023-04-06T13:26:09;12.20;75.20
58554;DHT22;48119;53.218;6.576;2023-04-06T13:28:36;12.20;75.60
58554;DHT22;48119;53.218;6.576;2023-04-06T13:31:04;12.30;74.60
58554;DHT22;48119;53.218;6.576;2023-04-06T13:33:30;12.20;73.70
58554;DHT22;48119;53.218;6.576;2023-04-06T13:35:57;12.30;74.80
58554;DHT22;48119;53.218;6.576;2023-04-06T13:38:23;12.30;75.70
58554;DHT22;48119;53.218;6.576;2023-04-06T13:40:52;12.30;74.90
58554;DHT22;48119;53.218;6.576;2023-04-06T13:43:18;12.30;73.50
58554;DHT22;48119;53.218;6.576;2023-04-06T13:45:50;12.30;73.90
58554;DHT22;48119;53.218;6.576;2023-04-06T13:48:17;12.30;74.00
58554;DHT22;48119;53.218;6.576;2023-04-06T13:50:43;12.30;73.50
58554;DHT22;48119;53.218;6.576;2023-04-06T13:53:09;12.30;73.10
58554;DHT22;48119;53.218;6.576;2023-04-06T13:55:35;12.30;72.50
58554;DHT22;48119;53.218;6.576;2023-04-06T13:58:01;12.30;74.00
58554;DHT22;48119;53.218;6.576;2023-04-06T14:00:27;12.40;74.60
58554;DHT22;48119;53.218;6.576;2023-04-06T14:02:56;12.40;74.40
58554;DHT22;48119;53.218;6.576;2023-04-06T14:05:22;12.40;75.20
58554;DHT22;48119;53.218;6.576;2023-04-06T14:07:49;12.40;76.40
58554;DHT22;48119;53.218;6.576;2023-04-06T14:10:15;12.40;76.00
58554;DHT22;48119;53.218;6.576;2023-04-06T14:12:42;12.40;77.30
58554;DHT22;48119;53.218;6.576;2023-04-06T14:15:11;12.40;76.40
58554;DHT22;48119;53.218;6.576;2023-04-06T14:17:37;12.40;77.30
58554;DHT22;48119;53.218;6.576;2023-04-06T14:20:04;12.50;77.80
58554;DHT22;48119;53.218;6.576;2023-04-06T14:22:30;12.50;78.60
58554;DHT22;48119;53.218;6.576;2023-04-06T14:24:56;12.50;78.80
58554;DHT22;48119;53.218;6.576;2023-04-06T14:27:25;12.50;78.60
58554;DHT22;48119;53.218;6.576;2023-04-06T14:29:50;12.50;78.90
58554;DHT22;48119;53.218;6.576;2023-04-06T14:32:16;12.50;79.40
58554;DHT22;48119;53.218;6.576;2023-04-06T14:34:42;12.50;79.50
58554;DHT22;48119;53.218;6.576;2023-04-06T14:37:08;12.50;79.90
58554;DHT22;48119;53.218;6.576;2023-04-06T14:39:34;12.50;80.50
58554;DHT22;48119;53.218;6.576;2023-04-06T14:41:59;12.60;80.80
58554;DHT22;48119;53.218;6.576;2023-04-06T14:44:25;12.60;81.00
58554;DHT22;48119;53.218;6.576;2023-04-06T14:46:51;12.50;80.90
58554;DHT22;48119;53.218;6.576;2023-04-06T14:49:17;12.60;82.50
58554;DHT22;48119;53.218;6.576;2023-04-06T14:51:43;12.60;81.90
58554;DHT22;48119;53.218;6.576;2023-04-06T14:54:08;12.60;82.60
58554;DHT22;48119;53.218;6.576;2023-04-06T14:56:34;12.60;82.80
58554;DHT22;48119;53.218;6.576;2023-04-06T14:59:00;12.60;82.90
58554;DHT22;48119;53.218;6.576;2023-04-06T15:01:27;12.60;83.40
58554;DHT22;48119;53.218;6.576;2023-04-06T15:03:53;12.60;84.00
58554;DHT22;48119;53.218;6.576;2023-04-06T15:06:19;12.60;84.20
58554;DHT22;48119;53.218;6.576;2023-04-06T15:08:46;12.60;84.20
58554;DHT22;48119;53.218;6.576;2023-04-06T15:11:12;12.60;84.20
58554;DHT22;48119;53.218;6.576;2023-04-06T15:13:39;12.60;84.40
58554;DHT22;48119;53.218;6.576;2023-04-06T15:16:05;12.40;84.70
58554;DHT22;48119;53.218;6.576;2023-04-06T15:18:33;12.50;85.20
58554;DHT22;48119;53.218;6.576;2023-04-06T15:20:59;12.50;85.60
58554;DHT22;48119;53.218;6.576;2023-04-06T15:23:24;12.50;86.00
58554;DHT22;48119;53.218;6.576;2023-04-06T15:25:51;12.50;86.50
58554;DHT22;48119;53.218;6.576;2023-04-06T15:28:17;12.50;86.70
58554;DHT22;48119;53.218;6.576;2023-04-06T15:30:45;12.40;86.90
58554;DHT22;48119;53.218;6.576;2023-04-06T15:33:11;12.40;87.20
58554;DHT22;48119;53.218;6.576;2023-04-06T15:35:37;12.40;87.20
58554;DHT22;48119;53.218;6.576;2023-04-06T15:38:08;12.40;87.40
58554;DHT22;48119;53.218;6.576;2023-04-06T15:40:34;12.40;88.30
58554;DHT22;48119;53.218;6.576;2023-04-06T15:43:06;12.40;88.00
58554;DHT22;48119;53.218;6.576;2023-04-06T15:45:32;12.40;88.20
58554;DHT22;48119;53.218;6.576;2023-04-06T15:47:58;12.40;89.30